sensor_id;sensor_type;location;lat;lon;timestamp;P1;durP1;ratioP1;P2;durP2;ratioP2
78555;SDS011;67851;51.354;7.744;2023-12-20T00:01:02;19.90;;;10.52;;
78555;SDS011;67851;51.354;7.744;2023-12-20T00:03:30;16.77;;;8.90;;
78555;SDS011;67851;51.354;7.744;2023-12-20T00:06:07;22.52;;;10.57;;
78555;SDS011;67851;51.354;7.744;2023-12-20T00:08:34;33.88;;;12.18;;
78555;SDS011;67851;51.354;7.744;2023-12-20T00:11:01;22.25;;;11.30;;
78555;SDS011;67851;51.354;7.744;2023-12-20T00:13:28;33.22;;;12.50;;
78555;SDS011;67851;51.354;7.744;2023-12-20T00:15:55;23.30;;;10.95;;
78555;SDS011;67851;51.354;7.744;2023-12-20T00:18:21;20.30;;;8.77;;
78555;SDS011;67851;51.354;7.744;2023-12-20T00:20:48;14.07;;;7.20;;
78555;SDS011;67851;51.354;7.744;2023-12-20T00:23:15;19.33;;;8.18;;
78555;SDS011;67851;51.354;7.744;2023-12-20T00:25:42;12.60;;;5.95;;
78555;SDS011;67851;51.354;7.744;2023-12-20T00:28:08;7.97;;;4.30;;
78555;SDS011;67851;51.354;7.744;2023-12-20T00:30:35;7.45;;;4.05;;
78555;SDS011;67851;51.354;7.744;2023-12-20T00:33:02;10.98;;;5.13;;
78555;SDS011;67851;51.354;7.744;2023-12-20T00:35:30;14.85;;;6.85;;
78555;SDS011;67851;51.354;7.744;2023-12-20T00:37:57;14.68;;;6.75;;
78555;SDS011;67851;51.354;7.744;2023-12-20T00:40:25;18.67;;;7.25;;
78555;SDS011;67851;51.354;7.744;2023-12-20T00:42:52;20.10;;;8.10;;
78555;SDS011;67851;51.354;7.744;2023-12-20T00:45:19;21.75;;;8.18;;
78555;SDS011;67851;51.354;7.744;2023-12-20T00:47:45;24.08;;;8.63;;
78555;SDS011;67851;51.354;7.744;2023-12-20T00:50:13;22.45;;;8.35;;
78555;SDS011;67851;51.354;7.744;2023-12-20T00:52:39;21.98;;;8.63;;
78555;SDS011;67851;51.354;7.744;2023-12-20T00:55:06;23.58;;;9.95;;
78555;SDS011;67851;51.354;7.744;2023-12-20T00:57:34;26.73;;;10.75;;
78555;SDS011;67851;51.354;7.744;2023-12-20T01:00:01;29.25;;;12.60;;
78555;SDS011;67851;51.354;7.744;2023-12-20T01:02:28;36.88;;;13.57;;
78555;SDS011;67851;51.354;7.744;2023-12-20T01:04:55;38.28;;;15.32;;
78555;SDS011;67851;51.354;7.744;2023-12-20T01:07:22;40.97;;;17.85;;
78555;SDS011;67851;51.354;7.744;2023-12-20T01:09:49;38.22;;;16.80;;
78555;SDS011;67851;51.354;7.744;2023-12-20T01:12:15;41.60;;;17.45;;
78555;SDS011;67851;51.354;7.744;2023-12-20T01:14:42;48.45;;;19.05;;
78555;SDS011;67851;51.354;7.744;2023-12-20T01:17:09;49.38;;;19.80;;
78555;SDS011;67851;51.354;7.744;2023-12-20T01:19:35;42.65;;;17.58;;
78555;SDS011;67851;51.354;7.744;2023-12-20T01:22:03;42.53;;;17.73;;
78555;SDS011;67851;51.354;7.744;2023-12-20T01:24:30;45.53;;;16.08;;
78555;SDS011;67851;51.354;7.744;2023-12-20T01:26:56;47.70;;;18.45;;
78555;SDS011;67851;51.354;7.744;2023-12-20T01:29:23;45.13;;;17.27;;
78555;SDS011;67851;51.354;7.744;2023-12-20T01:31:52;33.63;;;14.77;;
78555;SDS011;67851;51.354;7.744;2023-12-20T01:34:19;54.70;;;17.65;;
78555;SDS011;67851;51.354;7.744;2023-12-20T01:36:46;37.33;;;13.27;;
78555;SDS011;67851;51.354;7.744;2023-12-20T01:39:13;21.58;;;9.77;;
78555;SDS011;67851;51.354;7.744;2023-12-20T01:41:53;32.65;;;11.20;;
78555;SDS011;67851;51.354;7.744;2023-12-20T01:44:20;23.15;;;8.70;;
78555;SDS011;67851;51.354;7.744;2023-12-20T01:46:46;35.30;;;9.57;;
78555;SDS011;67851;51.354;7.744;2023-12-20T01:49:13;32.15;;;10.70;;
78555;SDS011;67851;51.354;7.744;2023-12-20T01:51:40;28.88;;;11.10;;
78555;SDS011;67851;51.354;7.744;2023-12-20T01:54:07;28.38;;;11.20;;
78555;SDS011;67851;51.354;7.744;2023-12-20T01:56:34;31.23;;;10.25;;
78555;SDS011;67851;51.354;7.744;2023-12-20T01:59:01;28.52;;;11.82;;
78555;SDS011;67851;51.354;7.744;2023-12-20T02:01:28;33.08;;;10.75;;
78555;SDS011;67851;51.354;7.744;2023-12-20T02:03:56;28.63;;;10.10;;
78555;SDS011;67851;51.354;7.744;2023-12-20T02:06:23;32.08;;;11.05;;
78555;SDS011;67851;51.354;7.744;2023-12-20T02:08:51;27.35;;;9.18;;
78555;SDS011;67851;51.354;7.744;2023-12-20T02:11:17;30.30;;;10.20;;
78555;SDS011;67851;51.354;7.744;2023-12-20T02:13:44;28.55;;;9.50;;
78555;SDS011;67851;51.354;7.744;2023-12-20T02:16:11;25.65;;;10.13;;
78555;SDS011;67851;51.354;7.744;2023-12-20T02:18:37;27.77;;;9.50;;
78555;SDS011;67851;51.354;7.744;2023-12-20T02:21:05;32.78;;;12.48;;
78555;SDS011;67851;51.354;7.744;2023-12-20T02:23:32;34.22;;;12.60;;
78555;SDS011;67851;51.354;7.744;2023-12-20T02:25:58;37.45;;;12.77;;
78555;SDS011;67851;51.354;7.744;2023-12-20T02:28:26;35.78;;;12.95;;
78555;SDS011;67851;51.354;7.744;2023-12-20T02:30:53;30.50;;;13.38;;
78555;SDS011;67851;51.354;7.744;2023-12-20T02:33:20;38.10;;;13.32;;
78555;SDS011;67851;51.354;7.744;2023-12-20T02:35:46;37.35;;;12.15;;
78555;SDS011;67851;51.354;7.744;2023-12-20T02:38:14;26.45;;;9.93;;
78555;SDS011;67851;51.354;7.744;2023-12-20T02:40:40;24.83;;;7.82;;
78555;SDS011;67851;51.354;7.744;2023-12-20T02:43:14;29.02;;;8.77;;
78555;SDS011;67851;51.354;7.744;2023-12-20T02:45:41;24.05;;;6.90;;
78555;SDS011;67851;51.354;7.744;2023-12-20T02:48:08;24.00;;;8.07;;
78555;SDS011;67851;51.354;7.744;2023-12-20T02:50:34;18.90;;;6.43;;
78555;SDS011;67851;51.354;7.744;2023-12-20T02:53:01;25.08;;;5.90;;
78555;SDS011;67851;51.354;7.744;2023-12-20T02:55:28;19.52;;;6.10;;
78555;SDS011;67851;51.354;7.744;2023-12-20T02:57:55;25.52;;;6.05;;
78555;SDS011;67851;51.354;7.744;2023-12-20T03:00:21;24.00;;;8.93;;
78555;SDS011;67851;51.354;7.744;2023-12-20T03:02:48;19.02;;;7.00;;
78555;SDS011;67851;51.354;7.744;2023-12-20T03:05:15;23.27;;;9.85;;
78555;SDS011;67851;51.354;7.744;2023-12-20T03:07:42;24.90;;;10.60;;
78555;SDS011;67851;51.354;7.744;2023-12-20T03:10:09;30.58;;;10.35;;
78555;SDS011;67851;51.354;7.744;2023-12-20T03:12:48;35.45;;;13.43;;
78555;SDS011;67851;51.354;7.744;2023-12-20T03:15:15;30.63;;;11.77;;
78555;SDS011;67851;51.354;7.744;2023-12-20T03:17:42;31.58;;;11.27;;
78555;SDS011;67851;51.354;7.744;2023-12-20T03:20:09;38.20;;;13.95;;
78555;SDS011;67851;51.354;7.744;2023-12-20T03:22:36;33.10;;;13.75;;
78555;SDS011;67851;51.354;7.744;2023-12-20T03:25:03;32.50;;;13.25;;
78555;SDS011;67851;51.354;7.744;2023-12-20T03:27:31;33.80;;;14.02;;
78555;SDS011;67851;51.354;7.744;2023-12-20T03:29:57;34.05;;;12.13;;
78555;SDS011;67851;51.354;7.744;2023-12-20T03:32:24;35.47;;;11.40;;
78555;SDS011;67851;51.354;7.744;2023-12-20T03:34:51;35.05;;;13.10;;
78555;SDS011;67851;51.354;7.744;2023-12-20T03:37:18;36.72;;;10.75;;
78555;SDS011;67851;51.354;7.744;2023-12-20T03:39:45;29.27;;;11.63;;
78555;SDS011;67851;51.354;7.744;2023-12-20T03:42:12;31.08;;;9.70;;
78555;SDS011;67851;51.354;7.744;2023-12-20T03:44:39;25.10;;;9.57;;
78555;SDS011;67851;51.354;7.744;2023-12-20T03:47:06;22.20;;;8.68;;
78555;SDS011;67851;51.354;7.744;2023-12-20T03:49:33;23.05;;;8.23;;
78555;SDS011;67851;51.354;7.744;2023-12-20T03:52:00;34.05;;;9.32;;
78555;SDS011;67851;51.354;7.744;2023-12-20T03:54:26;26.15;;;8.32;;
78555;SDS011;67851;51.354;7.744;2023-12-20T03:56:53;20.00;;;7.78;;
78555;SDS011;67851;51.354;7.744;2023-12-20T03:59:19;24.75;;;7.90;;
78555;SDS011;67851;51.354;7.744;2023-12-20T04:01:47;25.15;;;7.43;;
78555;SDS011;67851;51.354;7.744;2023-12-20T04:04:13;22.35;;;6.43;;
78555;SDS011;67851;51.354;7.744;2023-12-20T04:06:40;25.40;;;6.95;;
78555;SDS011;67851;51.354;7.744;2023-12-20T04:09:07;22.70;;;6.70;;
78555;SDS011;67851;51.354;7.744;2023-12-20T04:11:36;26.25;;;7.80;;
78555;SDS011;67851;51.354;7.744;2023-12-20T04:14:03;24.67;;;8.10;;
78555;SDS011;67851;51.354;7.744;2023-12-20T04:16:31;30.58;;;7.70;;
78555;SDS011;67851;51.354;7.744;2023-12-20T04:18:57;23.63;;;7.28;;
78555;SDS011;67851;51.354;7.744;2023-12-20T04:21:24;26.63;;;7.72;;
78555;SDS011;67851;51.354;7.744;2023-12-20T04:23:51;32.45;;;9.15;;
78555;SDS011;67851;51.354;7.744;2023-12-20T04:26:17;27.83;;;7.35;;
78555;SDS011;67851;51.354;7.744;2023-12-20T04:28:44;33.38;;;9.95;;
78555;SDS011;67851;51.354;7.744;2023-12-20T04:31:11;47.28;;;9.25;;
78555;SDS011;67851;51.354;7.744;2023-12-20T04:33:38;28.63;;;7.30;;
78555;SDS011;67851;51.354;7.744;2023-12-20T04:36:05;35.65;;;10.23;;
78555;SDS011;67851;51.354;7.744;2023-12-20T04:38:33;33.95;;;8.68;;
78555;SDS011;67851;51.354;7.744;2023-12-20T04:40:59;29.42;;;8.68;;
78555;SDS011;67851;51.354;7.744;2023-12-20T04:43:26;32.10;;;8.85;;
78555;SDS011;67851;51.354;7.744;2023-12-20T04:45:54;27.85;;;7.72;;
78555;SDS011;67851;51.354;7.744;2023-12-20T04:48:22;35.65;;;8.85;;
78555;SDS011;67851;51.354;7.744;2023-12-20T04:50:48;28.02;;;9.68;;
78555;SDS011;67851;51.354;7.744;2023-12-20T04:53:15;31.27;;;9.00;;
78555;SDS011;67851;51.354;7.744;2023-12-20T04:55:42;26.25;;;7.68;;
78555;SDS011;67851;51.354;7.744;2023-12-20T04:58:09;29.73;;;9.02;;
78555;SDS011;67851;51.354;7.744;2023-12-20T05:00:35;27.42;;;8.95;;
78555;SDS011;67851;51.354;7.744;2023-12-20T05:03:02;38.25;;;9.15;;
78555;SDS011;67851;51.354;7.744;2023-12-20T05:05:30;29.98;;;8.27;;
78555;SDS011;67851;51.354;7.744;2023-12-20T05:07:56;31.15;;;8.52;;
78555;SDS011;67851;51.354;7.744;2023-12-20T05:10:23;25.98;;;8.25;;
78555;SDS011;67851;51.354;7.744;2023-12-20T05:12:49;32.95;;;9.52;;
78555;SDS011;67851;51.354;7.744;2023-12-20T05:15:16;28.33;;;8.48;;
78555;SDS011;67851;51.354;7.744;2023-12-20T05:17:43;31.98;;;7.38;;
78555;SDS011;67851;51.354;7.744;2023-12-20T05:20:10;28.83;;;9.93;;
78555;SDS011;67851;51.354;7.744;2023-12-20T05:22:38;36.78;;;9.68;;
78555;SDS011;67851;51.354;7.744;2023-12-20T05:25:04;30.45;;;9.15;;
78555;SDS011;67851;51.354;7.744;2023-12-20T05:27:33;31.17;;;8.70;;
78555;SDS011;67851;51.354;7.744;2023-12-20T05:30:00;35.88;;;10.27;;
78555;SDS011;67851;51.354;7.744;2023-12-20T05:32:26;27.75;;;8.15;;
78555;SDS011;67851;51.354;7.744;2023-12-20T05:34:53;34.17;;;9.85;;
78555;SDS011;67851;51.354;7.744;2023-12-20T05:37:20;34.72;;;10.70;;
78555;SDS011;67851;51.354;7.744;2023-12-20T05:39:47;29.48;;;10.05;;
78555;SDS011;67851;51.354;7.744;2023-12-20T05:42:13;27.42;;;9.25;;
78555;SDS011;67851;51.354;7.744;2023-12-20T05:44:40;31.23;;;11.63;;
78555;SDS011;67851;51.354;7.744;2023-12-20T05:47:07;26.73;;;8.30;;
78555;SDS011;67851;51.354;7.744;2023-12-20T05:49:34;35.33;;;10.45;;
78555;SDS011;67851;51.354;7.744;2023-12-20T05:52:01;45.25;;;10.85;;
78555;SDS011;67851;51.354;7.744;2023-12-20T05:54:28;17.38;;;7.28;;
78555;SDS011;67851;51.354;7.744;2023-12-20T05:56:57;36.35;;;10.68;;
78555;SDS011;67851;51.354;7.744;2023-12-20T05:59:40;40.47;;;11.13;;
78555;SDS011;67851;51.354;7.744;2023-12-20T06:02:06;36.40;;;11.98;;
78555;SDS011;67851;51.354;7.744;2023-12-20T06:04:33;33.25;;;11.35;;
78555;SDS011;67851;51.354;7.744;2023-12-20T06:07:00;34.22;;;9.90;;
78555;SDS011;67851;51.354;7.744;2023-12-20T06:09:27;36.88;;;11.40;;
78555;SDS011;67851;51.354;7.744;2023-12-20T06:11:57;31.85;;;9.75;;
78555;SDS011;67851;51.354;7.744;2023-12-20T06:14:23;42.95;;;11.00;;
78555;SDS011;67851;51.354;7.744;2023-12-20T06:16:50;35.33;;;9.27;;
78555;SDS011;67851;51.354;7.744;2023-12-20T06:19:17;36.10;;;9.75;;
78555;SDS011;67851;51.354;7.744;2023-12-20T06:21:44;41.65;;;10.48;;
78555;SDS011;67851;51.354;7.744;2023-12-20T06:24:11;24.13;;;7.78;;
78555;SDS011;67851;51.354;7.744;2023-12-20T06:26:38;36.55;;;8.45;;
78555;SDS011;67851;51.354;7.744;2023-12-20T06:29:05;29.88;;;8.02;;
78555;SDS011;67851;51.354;7.744;2023-12-20T06:31:31;26.30;;;7.50;;
78555;SDS011;67851;51.354;7.744;2023-12-20T06:33:59;40.65;;;7.80;;
78555;SDS011;67851;51.354;7.744;2023-12-20T06:36:26;28.52;;;6.45;;
78555;SDS011;67851;51.354;7.744;2023-12-20T06:38:53;38.35;;;6.78;;
78555;SDS011;67851;51.354;7.744;2023-12-20T06:41:20;21.73;;;5.80;;
78555;SDS011;67851;51.354;7.744;2023-12-20T06:43:46;30.33;;;5.80;;
78555;SDS011;67851;51.354;7.744;2023-12-20T06:46:16;21.52;;;4.80;;
78555;SDS011;67851;51.354;7.744;2023-12-20T06:48:44;29.05;;;6.72;;
78555;SDS011;67851;51.354;7.744;2023-12-20T06:51:12;28.50;;;5.88;;
78555;SDS011;67851;51.354;7.744;2023-12-20T06:53:40;32.00;;;7.60;;
78555;SDS011;67851;51.354;7.744;2023-12-20T06:56:10;32.70;;;6.75;;
78555;SDS011;67851;51.354;7.744;2023-12-20T06:58:42;28.02;;;7.20;;
78555;SDS011;67851;51.354;7.744;2023-12-20T07:01:12;28.85;;;7.18;;
78555;SDS011;67851;51.354;7.744;2023-12-20T07:03:40;45.70;;;7.32;;
78555;SDS011;67851;51.354;7.744;2023-12-20T07:06:08;37.88;;;7.35;;
78555;SDS011;67851;51.354;7.744;2023-12-20T07:08:35;25.67;;;7.15;;
78555;SDS011;67851;51.354;7.744;2023-12-20T07:11:02;28.30;;;6.07;;
78555;SDS011;67851;51.354;7.744;2023-12-20T07:13:30;26.23;;;6.40;;
78555;SDS011;67851;51.354;7.744;2023-12-20T07:15:57;35.78;;;8.75;;
78555;SDS011;67851;51.354;7.744;2023-12-20T07:18:24;27.30;;;7.45;;
78555;SDS011;67851;51.354;7.744;2023-12-20T07:20:51;31.27;;;6.63;;
78555;SDS011;67851;51.354;7.744;2023-12-20T07:23:18;26.63;;;6.70;;
78555;SDS011;67851;51.354;7.744;2023-12-20T07:25:46;27.67;;;7.10;;
78555;SDS011;67851;51.354;7.744;2023-12-20T07:28:13;31.10;;;7.00;;
78555;SDS011;67851;51.354;7.744;2023-12-20T07:30:39;27.27;;;6.55;;
78555;SDS011;67851;51.354;7.744;2023-12-20T07:33:06;24.48;;;6.28;;
78555;SDS011;67851;51.354;7.744;2023-12-20T07:35:35;26.33;;;5.93;;
78555;SDS011;67851;51.354;7.744;2023-12-20T07:38:03;35.03;;;8.27;;
78555;SDS011;67851;51.354;7.744;2023-12-20T07:40:30;40.50;;;8.20;;
78555;SDS011;67851;51.354;7.744;2023-12-20T07:42:56;34.30;;;7.68;;
78555;SDS011;67851;51.354;7.744;2023-12-20T07:45:24;28.73;;;6.63;;
78555;SDS011;67851;51.354;7.744;2023-12-20T07:47:50;31.17;;;7.88;;
78555;SDS011;67851;51.354;7.744;2023-12-20T07:50:17;31.67;;;7.15;;
78555;SDS011;67851;51.354;7.744;2023-12-20T07:52:44;24.63;;;6.40;;
78555;SDS011;67851;51.354;7.744;2023-12-20T07:55:11;32.47;;;6.72;;
78555;SDS011;67851;51.354;7.744;2023-12-20T07:57:37;33.60;;;6.20;;
78555;SDS011;67851;51.354;7.744;2023-12-20T08:00:05;27.75;;;7.80;;
78555;SDS011;67851;51.354;7.744;2023-12-20T08:02:33;22.35;;;6.78;;
78555;SDS011;67851;51.354;7.744;2023-12-20T08:05:00;27.85;;;6.72;;
78555;SDS011;67851;51.354;7.744;2023-12-20T08:07:26;24.90;;;6.15;;
78555;SDS011;67851;51.354;7.744;2023-12-20T08:09:53;37.42;;;7.93;;
78555;SDS011;67851;51.354;7.744;2023-12-20T08:12:21;25.00;;;7.20;;
78555;SDS011;67851;51.354;7.744;2023-12-20T08:14:47;24.17;;;5.20;;
78555;SDS011;67851;51.354;7.744;2023-12-20T08:17:14;21.17;;;5.30;;
78555;SDS011;67851;51.354;7.744;2023-12-20T08:19:42;30.85;;;6.10;;
78555;SDS011;67851;51.354;7.744;2023-12-20T08:22:09;23.80;;;6.03;;
78555;SDS011;67851;51.354;7.744;2023-12-20T08:24:35;31.52;;;6.40;;
78555;SDS011;67851;51.354;7.744;2023-12-20T08:27:02;17.38;;;5.53;;
78555;SDS011;67851;51.354;7.744;2023-12-20T08:29:30;23.17;;;6.85;;
78555;SDS011;67851;51.354;7.744;2023-12-20T08:31:57;27.75;;;5.93;;
78555;SDS011;67851;51.354;7.744;2023-12-20T08:34:24;19.25;;;5.53;;
78555;SDS011;67851;51.354;7.744;2023-12-20T08:36:51;17.02;;;5.78;;
78555;SDS011;67851;51.354;7.744;2023-12-20T08:39:18;19.88;;;6.35;;
78555;SDS011;67851;51.354;7.744;2023-12-20T08:41:44;17.83;;;5.03;;
78555;SDS011;67851;51.354;7.744;2023-12-20T08:44:11;30.77;;;6.32;;
78555;SDS011;67851;51.354;7.744;2023-12-20T08:46:37;23.67;;;6.63;;
78555;SDS011;67851;51.354;7.744;2023-12-20T08:49:05;24.23;;;6.28;;
78555;SDS011;67851;51.354;7.744;2023-12-20T08:51:32;34.85;;;7.78;;
78555;SDS011;67851;51.354;7.744;2023-12-20T08:53:59;22.25;;;6.68;;
78555;SDS011;67851;51.354;7.744;2023-12-20T08:56:28;22.70;;;6.50;;
78555;SDS011;67851;51.354;7.744;2023-12-20T08:58:55;25.42;;;6.90;;
78555;SDS011;67851;51.354;7.744;2023-12-20T09:01:22;33.67;;;7.28;;
78555;SDS011;67851;51.354;7.744;2023-12-20T09:03:49;26.73;;;6.68;;
78555;SDS011;67851;51.354;7.744;2023-12-20T09:06:15;29.17;;;6.97;;
78555;SDS011;67851;51.354;7.744;2023-12-20T09:08:42;29.08;;;8.20;;
78555;SDS011;67851;51.354;7.744;2023-12-20T09:11:09;30.30;;;6.72;;
78555;SDS011;67851;51.354;7.744;2023-12-20T09:13:37;27.70;;;6.70;;
78555;SDS011;67851;51.354;7.744;2023-12-20T09:16:04;23.40;;;7.93;;
78555;SDS011;67851;51.354;7.744;2023-12-20T09:18:31;27.15;;;6.93;;
78555;SDS011;67851;51.354;7.744;2023-12-20T09:20:58;26.67;;;7.32;;
78555;SDS011;67851;51.354;7.744;2023-12-20T09:23:25;26.08;;;6.82;;
78555;SDS011;67851;51.354;7.744;2023-12-20T09:25:51;24.90;;;5.55;;
78555;SDS011;67851;51.354;7.744;2023-12-20T09:28:22;26.37;;;6.73;;
78555;SDS011;67851;51.354;7.744;2023-12-20T09:30:49;25.48;;;6.38;;
78555;SDS011;67851;51.354;7.744;2023-12-20T09:33:16;25.83;;;6.25;;
78555;SDS011;67851;51.354;7.744;2023-12-20T09:35:42;30.90;;;6.38;;
78555;SDS011;67851;51.354;7.744;2023-12-20T09:38:10;38.63;;;8.52;;
78555;SDS011;67851;51.354;7.744;2023-12-20T09:40:38;18.25;;;5.60;;
78555;SDS011;67851;51.354;7.744;2023-12-20T09:43:11;22.65;;;6.22;;
78555;SDS011;67851;51.354;7.744;2023-12-20T09:45:39;23.98;;;6.35;;
78555;SDS011;67851;51.354;7.744;2023-12-20T09:48:07;25.80;;;5.75;;
78555;SDS011;67851;51.354;7.744;2023-12-20T09:50:34;27.58;;;5.85;;
78555;SDS011;67851;51.354;7.744;2023-12-20T09:53:02;22.67;;;5.43;;
78555;SDS011;67851;51.354;7.744;2023-12-20T09:55:31;22.08;;;4.80;;
78555;SDS011;67851;51.354;7.744;2023-12-20T09:57:59;22.98;;;5.43;;
78555;SDS011;67851;51.354;7.744;2023-12-20T10:00:26;18.70;;;4.55;;
78555;SDS011;67851;51.354;7.744;2023-12-20T10:02:56;17.85;;;4.55;;
78555;SDS011;67851;51.354;7.744;2023-12-20T10:05:26;21.55;;;4.63;;
78555;SDS011;67851;51.354;7.744;2023-12-20T10:07:57;27.30;;;4.80;;
78555;SDS011;67851;51.354;7.744;2023-12-20T10:10:24;17.50;;;4.30;;
78555;SDS011;67851;51.354;7.744;2023-12-20T10:13:08;17.45;;;4.43;;
78555;SDS011;67851;51.354;7.744;2023-12-20T10:15:36;21.60;;;4.78;;
78555;SDS011;67851;51.354;7.744;2023-12-20T10:18:04;30.02;;;5.25;;
78555;SDS011;67851;51.354;7.744;2023-12-20T10:20:32;28.10;;;5.60;;
78555;SDS011;67851;51.354;7.744;2023-12-20T10:22:59;22.98;;;6.47;;
78555;SDS011;67851;51.354;7.744;2023-12-20T10:25:26;23.73;;;4.22;;
78555;SDS011;67851;51.354;7.744;2023-12-20T10:28:10;19.77;;;5.00;;
78555;SDS011;67851;51.354;7.744;2023-12-20T10:30:38;21.60;;;5.65;;
78555;SDS011;67851;51.354;7.744;2023-12-20T10:33:06;22.33;;;4.72;;
78555;SDS011;67851;51.354;7.744;2023-12-20T10:35:34;16.92;;;4.38;;
78555;SDS011;67851;51.354;7.744;2023-12-20T10:38:05;25.98;;;5.18;;
78555;SDS011;67851;51.354;7.744;2023-12-20T10:40:34;19.77;;;4.60;;
78555;SDS011;67851;51.354;7.744;2023-12-20T10:43:05;21.05;;;5.13;;
78555;SDS011;67851;51.354;7.744;2023-12-20T10:45:32;21.08;;;5.40;;
78555;SDS011;67851;51.354;7.744;2023-12-20T10:47:59;27.98;;;4.90;;
78555;SDS011;67851;51.354;7.744;2023-12-20T10:50:28;17.30;;;4.60;;
78555;SDS011;67851;51.354;7.744;2023-12-20T10:52:56;19.90;;;4.22;;
78555;SDS011;67851;51.354;7.744;2023-12-20T10:55:25;33.97;;;6.35;;
78555;SDS011;67851;51.354;7.744;2023-12-20T10:57:52;20.45;;;5.00;;
78555;SDS011;67851;51.354;7.744;2023-12-20T11:00:21;22.52;;;5.10;;
78555;SDS011;67851;51.354;7.744;2023-12-20T11:02:49;25.15;;;5.25;;
78555;SDS011;67851;51.354;7.744;2023-12-20T11:05:26;20.05;;;4.45;;
78555;SDS011;67851;51.354;7.744;2023-12-20T11:07:59;18.08;;;4.80;;
78555;SDS011;67851;51.354;7.744;2023-12-20T11:10:51;26.23;;;5.97;;
78555;SDS011;67851;51.354;7.744;2023-12-20T11:13:27;25.48;;;6.32;;
78555;SDS011;67851;51.354;7.744;2023-12-20T11:15:58;32.95;;;7.78;;
78555;SDS011;67851;51.354;7.744;2023-12-20T11:18:29;22.15;;;6.22;;
78555;SDS011;67851;51.354;7.744;2023-12-20T11:21:00;28.77;;;6.38;;
78555;SDS011;67851;51.354;7.744;2023-12-20T11:23:29;26.88;;;5.90;;
78555;SDS011;67851;51.354;7.744;2023-12-20T11:25:59;22.00;;;5.45;;
78555;SDS011;67851;51.354;7.744;2023-12-20T11:28:26;23.08;;;5.82;;
78555;SDS011;67851;51.354;7.744;2023-12-20T11:34:20;29.02;;;6.68;;
78555;SDS011;67851;51.354;7.744;2023-12-20T11:36:47;29.17;;;7.55;;
78555;SDS011;67851;51.354;7.744;2023-12-20T11:39:21;30.75;;;6.68;;
78555;SDS011;67851;51.354;7.744;2023-12-20T11:41:48;23.55;;;7.97;;
78555;SDS011;67851;51.354;7.744;2023-12-20T11:44:17;24.08;;;7.82;;
78555;SDS011;67851;51.354;7.744;2023-12-20T11:46:44;31.70;;;7.85;;
78555;SDS011;67851;51.354;7.744;2023-12-20T11:49:11;28.33;;;9.65;;
78555;SDS011;67851;51.354;7.744;2023-12-20T11:51:41;20.40;;;5.97;;
78555;SDS011;67851;51.354;7.744;2023-12-20T11:54:08;22.58;;;7.15;;
78555;SDS011;67851;51.354;7.744;2023-12-20T11:56:35;31.02;;;8.55;;
78555;SDS011;67851;51.354;7.744;2023-12-20T11:59:02;22.95;;;8.35;;
78555;SDS011;67851;51.354;7.744;2023-12-20T12:01:49;28.80;;;8.60;;
78555;SDS011;67851;51.354;7.744;2023-12-20T12:04:18;41.13;;;8.30;;
78555;SDS011;67851;51.354;7.744;2023-12-20T12:06:53;16.45;;;7.05;;
78555;SDS011;67851;51.354;7.744;2023-12-20T12:09:21;32.05;;;8.45;;
78555;SDS011;67851;51.354;7.744;2023-12-20T12:11:47;15.95;;;8.13;;
78555;SDS011;67851;51.354;7.744;2023-12-20T12:14:14;30.92;;;9.30;;
78555;SDS011;67851;51.354;7.744;2023-12-20T12:16:44;24.83;;;9.00;;
78555;SDS011;67851;51.354;7.744;2023-12-20T12:19:20;34.13;;;9.70;;
78555;SDS011;67851;51.354;7.744;2023-12-20T12:21:49;31.75;;;9.57;;
78555;SDS011;67851;51.354;7.744;2023-12-20T12:24:19;27.15;;;9.07;;
78555;SDS011;67851;51.354;7.744;2023-12-20T12:26:50;27.52;;;8.38;;
78555;SDS011;67851;51.354;7.744;2023-12-20T12:29:17;22.88;;;7.60;;
78555;SDS011;67851;51.354;7.744;2023-12-20T12:31:44;23.50;;;7.22;;
78555;SDS011;67851;51.354;7.744;2023-12-20T12:34:11;25.48;;;8.07;;
78555;SDS011;67851;51.354;7.744;2023-12-20T12:36:39;21.73;;;8.25;;
78555;SDS011;67851;51.354;7.744;2023-12-20T12:39:05;26.15;;;8.77;;
78555;SDS011;67851;51.354;7.744;2023-12-20T12:41:32;24.15;;;8.52;;
78555;SDS011;67851;51.354;7.744;2023-12-20T12:43:58;28.10;;;8.50;;
78555;SDS011;67851;51.354;7.744;2023-12-20T12:46:36;30.55;;;9.13;;
78555;SDS011;67851;51.354;7.744;2023-12-20T12:49:03;25.40;;;8.07;;
78555;SDS011;67851;51.354;7.744;2023-12-20T12:51:30;28.40;;;8.52;;
78555;SDS011;67851;51.354;7.744;2023-12-20T12:53:57;19.85;;;7.93;;
78555;SDS011;67851;51.354;7.744;2023-12-20T12:56:24;27.10;;;9.05;;
78555;SDS011;67851;51.354;7.744;2023-12-20T12:58:51;19.67;;;8.10;;
78555;SDS011;67851;51.354;7.744;2023-12-20T13:01:18;18.23;;;6.38;;
78555;SDS011;67851;51.354;7.744;2023-12-20T13:03:45;20.65;;;7.53;;
78555;SDS011;67851;51.354;7.744;2023-12-20T13:06:12;31.33;;;8.70;;
78555;SDS011;67851;51.354;7.744;2023-12-20T13:08:38;30.65;;;7.70;;
78555;SDS011;67851;51.354;7.744;2023-12-20T13:11:05;25.67;;;7.78;;
78555;SDS011;67851;51.354;7.744;2023-12-20T13:13:32;20.80;;;7.60;;
78555;SDS011;67851;51.354;7.744;2023-12-20T13:15:58;22.40;;;7.43;;
78555;SDS011;67851;51.354;7.744;2023-12-20T13:18:27;28.15;;;8.55;;
78555;SDS011;67851;51.354;7.744;2023-12-20T13:20:54;23.63;;;7.53;;
78555;SDS011;67851;51.354;7.744;2023-12-20T13:23:21;22.00;;;8.60;;
78555;SDS011;67851;51.354;7.744;2023-12-20T13:25:47;27.48;;;8.95;;
78555;SDS011;67851;51.354;7.744;2023-12-20T13:28:14;24.95;;;7.22;;
78555;SDS011;67851;51.354;7.744;2023-12-20T13:30:40;19.52;;;7.22;;
78555;SDS011;67851;51.354;7.744;2023-12-20T13:33:08;22.77;;;7.35;;
78555;SDS011;67851;51.354;7.744;2023-12-20T13:35:35;24.38;;;7.47;;
78555;SDS011;67851;51.354;7.744;2023-12-20T13:38:02;29.35;;;7.00;;
78555;SDS011;67851;51.354;7.744;2023-12-20T13:40:29;29.13;;;8.00;;
78555;SDS011;67851;51.354;7.744;2023-12-20T13:42:56;27.05;;;7.70;;
78555;SDS011;67851;51.354;7.744;2023-12-20T13:45:23;28.33;;;9.25;;
78555;SDS011;67851;51.354;7.744;2023-12-20T13:47:51;18.85;;;7.90;;
78555;SDS011;67851;51.354;7.744;2023-12-20T13:50:18;25.52;;;8.63;;
78555;SDS011;67851;51.354;7.744;2023-12-20T13:52:44;24.30;;;8.82;;
78555;SDS011;67851;51.354;7.744;2023-12-20T13:55:12;28.15;;;8.95;;
78555;SDS011;67851;51.354;7.744;2023-12-20T13:57:39;29.55;;;8.93;;
78555;SDS011;67851;51.354;7.744;2023-12-20T14:00:20;26.53;;;8.70;;
78555;SDS011;67851;51.354;7.744;2023-12-20T14:02:47;23.63;;;8.27;;
78555;SDS011;67851;51.354;7.744;2023-12-20T14:05:14;16.02;;;7.65;;
78555;SDS011;67851;51.354;7.744;2023-12-20T14:07:44;25.63;;;7.47;;
78555;SDS011;67851;51.354;7.744;2023-12-20T14:10:12;26.63;;;8.32;;
78555;SDS011;67851;51.354;7.744;2023-12-20T14:12:40;20.45;;;7.03;;
78555;SDS011;67851;51.354;7.744;2023-12-20T14:15:07;14.18;;;6.80;;
78555;SDS011;67851;51.354;7.744;2023-12-20T14:17:41;20.77;;;6.13;;
78555;SDS011;67851;51.354;7.744;2023-12-20T14:20:11;18.33;;;6.85;;
78555;SDS011;67851;51.354;7.744;2023-12-20T14:22:40;17.20;;;6.15;;
78555;SDS011;67851;51.354;7.744;2023-12-20T14:25:11;15.00;;;5.47;;
78555;SDS011;67851;51.354;7.744;2023-12-20T14:27:39;14.80;;;5.75;;
78555;SDS011;67851;51.354;7.744;2023-12-20T14:30:06;9.57;;;5.00;;
78555;SDS011;67851;51.354;7.744;2023-12-20T14:32:34;9.63;;;4.32;;
78555;SDS011;67851;51.354;7.744;2023-12-20T14:35:05;11.50;;;4.40;;
78555;SDS011;67851;51.354;7.744;2023-12-20T14:37:34;15.18;;;6.07;;
78555;SDS011;67851;51.354;7.744;2023-12-20T14:40:01;14.98;;;7.20;;